createdAt,value
2023-02-03T00:00:48.663Z,11.69
2023-02-03T00:03:42.353Z,11.67
2023-02-03T00:06:14.074Z,11.67
2023-02-03T00:08:49.224Z,11.68
2023-02-03T00:11:41.184Z,11.68
2023-02-03T00:14:40.283Z,11.66
2023-02-03T00:17:29.152Z,11.63
2023-02-03T00:20:30.404Z,11.59
2023-02-03T00:23:44.790Z,11.56
2023-02-03T00:27:13.397Z,11.55
2023-02-03T00:30:30.802Z,11.53
2023-02-03T00:33:08.139Z,11.50
2023-02-03T00:36:11.048Z,11.47
2023-02-03T00:39:30.877Z,11.46
2023-02-03T00:42:39.593Z,11.45
2023-02-03T00:45:56.142Z,11.44
2023-02-03T00:48:33.715Z,11.40
2023-02-03T00:51:03.153Z,11.36
2023-02-03T00:54:11.960Z,11.32
2023-02-03T00:57:40.851Z,11.25
2023-02-03T01:00:49.970Z,11.18
2023-02-03T01:04:18.777Z,11.10
2023-02-03T01:07:47.750Z,11.03
2023-02-03T01:10:41.490Z,10.94
2023-02-03T01:13:19.862Z,10.89
2023-02-03T01:16:17.853Z,10.83
2023-02-03T01:19:07.337Z,10.75
2023-02-03T01:21:39.165Z,10.68
2023-02-03T01:24:50.705Z,10.63
2023-02-03T01:27:22.536Z,10.53
2023-02-03T01:30:51.425Z,10.46
2023-02-03T01:34:00.453Z,10.37
2023-02-03T01:36:47.573Z,10.31
2023-02-03T01:39:56.821Z,10.24
2023-02-03T01:43:06.330Z,10.15
2023-02-03T01:46:15.195Z,10.07
2023-02-03T01:49:50.857Z,9.99
2023-02-03T01:52:50.388Z,9.91
2023-02-03T01:56:19.535Z,9.85
2023-02-03T01:59:48.809Z,9.78
2023-02-03T02:03:08.041Z,9.72
2023-02-03T02:06:46.549Z,9.65
2023-02-03T02:10:15.089Z,9.57
2023-02-03T02:13:43.989Z,9.51
2023-02-03T02:17:13.328Z,9.45
2023-02-03T02:20:51.401Z,9.39
2023-02-03T02:24:39.044Z,9.36
2023-02-03T02:28:05.403Z,9.30
2023-02-03T02:31:48.024Z,9.24
2023-02-03T02:35:16.172Z,9.18
2023-02-03T02:39:01.686Z,9.14
2023-02-03T02:41:51.976Z,9.08
2023-02-03T02:44:58.748Z,9.06
2023-02-03T02:48:07.879Z,9.02
2023-02-03T02:51:36.239Z,8.98
2023-02-03T02:58:17.891Z,8.86
2023-02-03T03:01:29.576Z,8.78
2023-02-03T03:04:38.431Z,8.73
2023-02-03T03:07:47.289Z,8.67
2023-02-03T03:11:16.344Z,8.62
2023-02-03T03:14:35.865Z,8.57
2023-02-03T03:18:05.151Z,8.53
2023-02-03T03:21:08.081Z,8.48
2023-02-03T03:24:34.833Z,8.45
2023-02-03T03:28:12.684Z,8.42
2023-02-03T03:31:45.025Z,8.39
2023-02-03T03:34:55.034Z,8.36
2023-02-03T03:38:42.359Z,8.33
2023-02-03T03:42:17.094Z,8.30
2023-02-03T03:45:37.108Z,8.26
2023-02-03T03:49:28.224Z,8.21
2023-02-03T03:53:00.393Z,8.17
2023-02-03T03:56:16.188Z,8.12
2023-02-03T03:59:38.029Z,8.07
2023-02-03T04:03:06.989Z,8.03
2023-02-03T04:06:35.653Z,8.00
2023-02-03T04:09:44.956Z,7.99
2023-02-03T04:13:17.186Z,7.99
2023-02-03T04:15:59.854Z,7.99
2023-02-03T04:19:28.907Z,7.98
2023-02-03T04:22:57.935Z,7.98
2023-02-03T04:26:26.659Z,7.98
2023-02-03T04:29:44.185Z,8.00
2023-02-03T04:33:03.010Z,8.02
2023-02-03T04:36:24.732Z,8.05
2023-02-03T04:39:53.539Z,8.08
2023-02-03T04:43:22.489Z,8.11
2023-02-03T04:46:21.949Z,8.14
2023-02-03T04:48:53.740Z,8.16
2023-02-03T04:51:51.288Z,8.19
2023-02-03T04:55:20.479Z,8.21
2023-02-03T04:58:32.627Z,8.23
2023-02-03T05:01:42.082Z,8.25
2023-02-03T05:05:03.536Z,8.25
2023-02-03T05:08:25.478Z,8.25
2023-02-03T05:11:55.097Z,8.26
2023-02-03T05:14:45.384Z,8.27
2023-02-03T05:17:39.767Z,8.28
2023-02-03T05:20:59.542Z,8.30
2023-02-03T05:24:11.788Z,8.30
2023-02-03T05:27:06.958Z,8.27
2023-02-03T05:30:36.006Z,8.24
2023-02-03T05:33:07.722Z,8.19
2023-02-03T05:35:59.548Z,8.15
2023-02-03T05:39:28.441Z,8.12
2023-02-03T05:42:50.526Z,8.08
2023-02-03T05:46:19.200Z,8.05
2023-02-03T05:49:48.051Z,8.04
2023-02-03T05:53:06.233Z,8.03
2023-02-03T05:56:35.595Z,8.01
2023-02-03T05:59:47.642Z,7.99
2023-02-03T06:03:06.851Z,7.96
2023-02-03T06:06:36.235Z,7.91
2023-02-03T06:09:36.832Z,7.86
2023-02-03T06:12:06.847Z,7.81
2023-02-03T06:15:35.659Z,7.79
2023-02-03T06:18:54.538Z,7.75
2023-02-03T06:21:46.856Z,7.70
2023-02-03T06:25:15.947Z,7.68
2023-02-03T06:28:47.968Z,7.66
2023-02-03T06:32:17.336Z,7.65
2023-02-03T06:35:45.375Z,7.62
2023-02-03T06:39:07.190Z,7.58
2023-02-03T06:42:36.356Z,7.57
2023-02-03T06:46:05.957Z,7.56
2023-02-03T06:49:35.606Z,7.57
2023-02-03T06:53:05.205Z,7.59
2023-02-03T06:56:34.306Z,7.56
2023-02-03T07:00:03.474Z,7.52
2023-02-03T07:03:13.484Z,7.49
2023-02-03T07:06:33.664Z,7.47
2023-02-03T07:10:02.683Z,7.45
2023-02-03T07:13:31.509Z,7.42
2023-02-03T07:20:42.980Z,7.33
2023-02-03T07:24:12.093Z,7.29
2023-02-03T07:27:41.033Z,7.23
2023-02-03T07:31:10.235Z,7.19
2023-02-03T07:34:40.877Z,7.13
2023-02-03T07:38:09.978Z,7.06
2023-02-03T07:41:39.143Z,6.99
2023-02-03T07:44:51.340Z,6.90
2023-02-03T07:48:20.323Z,6.84
2023-02-03T07:51:32.637Z,6.77
2023-02-03T07:55:01.524Z,6.70
2023-02-03T07:58:30.744Z,6.67
2023-02-03T08:01:59.583Z,6.64
2023-02-03T08:05:28.478Z,6.60
2023-02-03T08:08:49.999Z,6.58
2023-02-03T08:12:19.281Z,6.54
2023-02-03T08:15:48.197Z,6.50
2023-02-03T08:19:17.131Z,6.47
2023-02-03T08:22:48.135Z,6.46
2023-02-03T08:26:17.559Z,6.43
2023-02-03T08:29:46.662Z,6.39
2023-02-03T08:33:15.531Z,6.33
2023-02-03T08:36:44.053Z,6.29
2023-02-03T08:40:13.498Z,6.26
2023-02-03T08:43:42.923Z,6.20
2023-02-03T08:47:11.947Z,6.15
2023-02-03T08:50:41.298Z,6.10
2023-02-03T08:54:00.596Z,6.05
2023-02-03T08:57:29.819Z,5.98
2023-02-03T09:00:59.072Z,5.90
2023-02-03T09:04:28.480Z,5.83
2023-02-03T09:07:57.686Z,5.76
2023-02-03T09:11:27.103Z,5.71
2023-02-03T09:14:56.005Z,5.66
2023-02-03T09:18:25.099Z,5.61
2023-02-03T09:21:53.892Z,5.56
2023-02-03T09:25:22.891Z,5.53
2023-02-03T09:28:51.547Z,5.51
2023-02-03T09:32:20.871Z,5.49
2023-02-03T09:35:50.396Z,5.49
2023-02-03T09:39:19.776Z,5.49
2023-02-03T09:42:40.743Z,5.50
2023-02-03T09:46:16.037Z,5.50
2023-02-03T09:49:45.314Z,5.49
2023-02-03T09:53:14.747Z,5.49
2023-02-03T09:56:44.439Z,5.48
2023-02-03T10:03:57.172Z,5.49
2023-02-03T10:07:29.339Z,5.48
2023-02-03T10:11:03.719Z,5.47
2023-02-03T10:14:35.848Z,5.46
2023-02-03T10:18:17.229Z,5.44
2023-02-03T10:21:46.557Z,5.43
2023-02-03T10:25:21.597Z,5.41
2023-02-03T10:28:59.688Z,5.41
2023-02-03T10:32:29.008Z,5.41
2023-02-03T10:35:58.222Z,5.40
2023-02-03T10:39:30.294Z,5.40
2023-02-03T10:42:57.755Z,5.42
2023-02-03T10:46:27.337Z,5.44
2023-02-03T10:49:56.301Z,5.45
2023-02-03T10:53:31.605Z,5.46
2023-02-03T10:57:03.764Z,5.49
2023-02-03T11:00:33.079Z,5.52
2023-02-03T11:03:26.614Z,5.56
2023-02-03T11:06:17.244Z,5.59
2023-02-03T11:08:49.585Z,5.61
2023-02-03T11:11:36.206Z,5.62
2023-02-03T11:14:18.582Z,5.62
2023-02-03T11:16:48.588Z,5.62
2023-02-03T11:19:26.029Z,5.61
2023-02-03T11:22:55.390Z,5.60
2023-02-03T11:26:24.632Z,5.57
2023-02-03T11:30:02.887Z,5.55
2023-02-03T11:33:31.947Z,5.53
2023-02-03T11:36:07.618Z,5.52
2023-02-03T11:39:00.159Z,5.51
2023-02-03T11:42:09.145Z,5.48
2023-02-03T11:45:29.563Z,5.46
2023-02-03T11:48:20.258Z,5.43
2023-02-03T11:51:12.439Z,5.39
2023-02-03T11:54:44.828Z,5.38
2023-02-03T11:58:22.665Z,5.38
2023-02-03T12:02:00.278Z,5.38
2023-02-03T12:05:26.457Z,5.39
2023-02-03T12:08:18.232Z,5.39
2023-02-03T12:11:11.772Z,5.38
2023-02-03T12:13:43.694Z,5.37
2023-02-03T12:16:28.938Z,5.35
2023-02-03T12:19:15.721Z,5.32
2023-02-03T12:21:58.657Z,5.28
2023-02-03T12:25:21.750Z,5.24
2023-02-03T12:28:32.492Z,5.19
2023-02-03T12:31:17.844Z,5.14
2023-02-03T12:34:02.820Z,5.11
2023-02-03T12:36:40.794Z,5.08
2023-02-03T12:39:31.848Z,5.06
2023-02-03T12:43:13.670Z,5.05
2023-02-03T12:46:42.906Z,5.02
2023-02-03T12:50:24.319Z,5.00
2023-02-03T12:53:59.492Z,5.00
2023-02-03T12:56:59.065Z,4.99
2023-02-03T13:00:08.117Z,4.99
2023-02-03T13:03:35.981Z,4.98
2023-02-03T13:06:21.173Z,4.98
2023-02-03T13:09:40.380Z,4.98
2023-02-03T13:12:24.178Z,4.99
2023-02-03T13:15:19.903Z,4.99
2023-02-03T13:18:01.729Z,4.99
2023-02-03T13:20:36.884Z,4.98
2023-02-03T13:23:17.589Z,4.98
2023-02-03T13:25:58.274Z,4.97
2023-02-03T13:29:02.544Z,4.97
2023-02-03T13:32:43.545Z,4.96
2023-02-03T13:36:24.036Z,4.97
2023-02-03T13:40:08.545Z,4.97
2023-02-03T13:43:39.154Z,4.98
2023-02-03T13:47:09.077Z,5.01
2023-02-03T13:50:38.300Z,5.03
2023-02-03T13:54:19.211Z,5.04
2023-02-03T13:58:06.809Z,5.06
2023-02-03T14:01:46.146Z,5.08
2023-02-03T14:05:07.732Z,5.11
2023-02-03T14:12:48.176Z,5.14
2023-02-03T14:16:29.449Z,5.17
2023-02-03T14:20:05.082Z,5.20
2023-02-03T14:23:29.272Z,5.24
2023-02-03T14:26:50.351Z,5.28
2023-02-03T14:30:24.345Z,5.35
2023-02-03T14:33:53.658Z,5.43
2023-02-03T14:37:16.040Z,5.50
2023-02-03T14:40:37.569Z,5.58
2023-02-03T14:43:49.444Z,5.65
2023-02-03T14:47:07.423Z,5.69
2023-02-03T14:49:47.534Z,5.73
2023-02-03T14:52:25.476Z,5.80
2023-02-03T14:55:00.907Z,5.84
2023-02-03T14:57:45.166Z,5.88
2023-02-03T15:00:43.978Z,5.93
2023-02-03T15:03:13.153Z,5.97
2023-02-03T15:05:47.929Z,6.00
2023-02-03T15:08:49.987Z,6.03
2023-02-03T15:11:37.080Z,6.06
2023-02-03T15:15:10.074Z,6.08
2023-02-03T15:17:39.870Z,6.11
2023-02-03T15:20:47.798Z,6.11
2023-02-03T15:23:44.501Z,6.13
2023-02-03T15:26:25.261Z,6.14
2023-02-03T15:29:23.913Z,6.16
2023-02-03T15:32:36.243Z,6.18
2023-02-03T15:36:05.244Z,6.21
2023-02-03T15:39:28.474Z,6.24
2023-02-03T15:42:58.154Z,6.29
2023-02-03T15:45:42.905Z,6.35
2023-02-03T15:49:06.884Z,6.39
2023-02-03T15:52:30.545Z,6.47
2023-02-03T15:55:57.877Z,6.54
2023-02-03T15:59:18.807Z,6.61
2023-02-03T16:02:24.140Z,6.69
2023-02-03T16:05:26.832Z,6.74
2023-02-03T16:09:10.280Z,6.81
2023-02-03T16:12:44.706Z,6.88
2023-02-03T16:16:06.523Z,6.91
2023-02-03T16:19:37.924Z,6.95
2023-02-03T16:23:10.155Z,6.99
2023-02-03T16:25:38.885Z,7.02
2023-02-03T16:28:42.244Z,7.05
2023-02-03T16:31:42.396Z,7.07
2023-02-03T16:34:38.707Z,7.08
2023-02-03T16:37:40.173Z,7.08
2023-02-03T16:41:07.175Z,7.12
2023-02-03T16:44:34.407Z,7.14
2023-02-03T16:48:07.459Z,7.12
2023-02-03T16:51:36.538Z,7.10
2023-02-03T16:55:07.241Z,7.09
2023-02-03T16:57:36.097Z,7.06
2023-02-03T17:00:18.555Z,7.03
2023-02-03T17:02:50.921Z,6.98
2023-02-03T17:05:20.087Z,6.93
2023-02-03T17:07:52.495Z,6.89
2023-02-03T17:10:42.169Z,6.85
2023-02-03T17:14:11.202Z,6.81
2023-02-03T17:21:22.020Z,6.78
2023-02-03T17:24:50.724Z,6.77
2023-02-03T17:28:19.542Z,6.78
2023-02-03T17:30:58.278Z,6.80
2023-02-03T17:34:27.239Z,6.83
2023-02-03T17:37:27.222Z,6.88
2023-02-03T17:53:23.852Z,6.97
2023-02-03T17:55:52.932Z,6.99
2023-02-03T17:58:26.076Z,7.03
2023-02-03T18:00:54.977Z,7.06
2023-02-03T18:03:24.256Z,7.09
2023-02-03T18:06:42.485Z,7.13
2023-02-03T18:10:11.708Z,7.18
2023-02-03T18:13:41.186Z,7.22
2023-02-03T18:17:10.287Z,7.26
2023-02-03T18:20:29.502Z,7.30
2023-02-03T18:23:58.936Z,7.34
2023-02-03T18:27:26.177Z,7.38
2023-02-03T18:30:55.807Z,7.43
2023-02-03T18:34:24.799Z,7.49
2023-02-03T18:37:53.957Z,7.54
2023-02-03T18:41:23.228Z,7.60
2023-02-03T18:44:52.314Z,7.66
2023-02-03T18:48:21.568Z,7.74
2023-02-03T18:51:50.538Z,7.81
2023-02-03T18:55:19.224Z,7.90
2023-02-03T18:58:48.528Z,7.98
2023-02-03T19:02:23.929Z,8.06
2023-02-03T19:05:12.960Z,8.14
2023-02-03T19:08:42.019Z,8.19
2023-02-03T19:12:11.512Z,8.26
2023-02-03T19:15:41.149Z,8.31
2023-02-03T19:19:10.456Z,8.37
2023-02-03T19:22:39.619Z,8.43
2023-02-03T19:26:08.657Z,8.48
2023-02-03T19:29:37.904Z,8.54
2023-02-03T19:33:07.387Z,8.59
2023-02-03T19:36:36.797Z,8.63
2023-02-03T19:40:06.142Z,8.68
2023-02-03T19:42:51.239Z,8.71
2023-02-03T19:46:20.346Z,8.75
2023-02-03T19:49:13.003Z,8.77
2023-02-03T19:52:31.298Z,8.79
2023-02-03T19:55:29.252Z,8.81
2023-02-03T19:58:58.601Z,8.82
2023-02-03T20:01:58.088Z,8.83
2023-02-03T20:04:57.897Z,8.84
2023-02-03T20:07:50.482Z,8.82
2023-02-03T20:11:00.345Z,8.80
2023-02-03T20:13:42.207Z,8.77
2023-02-03T20:16:34.421Z,8.74
2023-02-03T20:19:47.087Z,8.72
2023-02-03T20:23:05.462Z,8.69
2023-02-03T20:25:55.211Z,8.64
2023-02-03T20:29:17.503Z,8.59
2023-02-03T20:32:25.520Z,8.54
2023-02-03T20:35:05.483Z,8.52
2023-02-03T20:37:37.741Z,8.49
2023-02-03T20:40:47.977Z,8.47
2023-02-03T20:44:26.304Z,8.48
2023-02-03T20:47:55.476Z,8.49
2023-02-03T20:51:17.953Z,8.52
2023-02-03T20:54:53.610Z,8.55
2023-02-03T20:58:22.877Z,8.61
2023-02-03T21:01:51.607Z,8.66
2023-02-03T21:05:21.362Z,8.71
2023-02-03T21:08:39.524Z,8.79
2023-02-03T21:12:17.730Z,8.85
2023-02-03T21:15:46.990Z,8.92
2023-02-03T21:19:14.627Z,8.98
2023-02-03T21:22:43.889Z,9.03
2023-02-03T21:26:13.159Z,9.07
2023-02-03T21:29:42.253Z,9.10
2023-02-03T21:33:14.215Z,9.12
2023-02-03T21:36:43.452Z,9.15
2023-02-03T21:40:15.207Z,9.19
2023-02-03T21:43:43.975Z,9.24
2023-02-03T21:47:18.867Z,9.29
2023-02-03T21:50:37.719Z,9.32
2023-02-03T21:54:13.184Z,9.34
2023-02-03T21:57:45.459Z,9.33
2023-02-03T22:01:19.020Z,9.35
2023-02-03T22:04:01.758Z,9.37
2023-02-03T22:07:03.630Z,9.39
2023-02-03T22:09:36.264Z,9.39
2023-02-03T22:12:05.534Z,9.39
2023-02-03T22:14:34.584Z,9.38
2023-02-03T22:17:03.710Z,9.38
2023-02-03T22:20:24.221Z,9.39
2023-02-03T22:23:53.288Z,9.41
2023-02-03T22:27:22.394Z,9.42
2023-02-03T22:30:51.587Z,9.42
2023-02-03T22:34:20.884Z,9.39
2023-02-03T22:37:48.301Z,9.36
2023-02-03T22:41:01.352Z,9.35
2023-02-03T22:44:30.730Z,9.32
2023-02-03T22:48:00.064Z,9.28
2023-02-03T22:51:29.115Z,9.24
2023-02-03T22:54:58.271Z,9.20
2023-02-03T22:58:27.625Z,9.16
2023-02-03T23:01:56.974Z,9.13
2023-02-03T23:05:26.067Z,9.09
2023-02-03T23:08:56.478Z,9.03
2023-02-03T23:12:25.990Z,8.97
2023-02-03T23:15:55.317Z,8.92
2023-02-03T23:19:04.641Z,8.87
2023-02-03T23:22:33.398Z,8.83
2023-02-03T23:26:20.468Z,8.77
2023-02-03T23:29:23.485Z,8.74
2023-02-03T23:32:52.584Z,8.71
2023-02-03T23:36:21.729Z,8.69
2023-02-03T23:39:50.767Z,8.69
2023-02-03T23:43:20.212Z,8.65
2023-02-03T23:46:49.327Z,8.60
2023-02-03T23:50:18.471Z,8.55
2023-02-03T23:53:47.601Z,8.51
2023-02-03T23:57:06.793Z,8.49
